Time;durP1;ratioP1;P1;durP2;ratioP2;P2;SDS_P1;SDS_P2;PMS_P1;PMS_P2;Temp;Humidity;BMP_temperature;BMP_pressure;BME280_temperature;BME280_humidity;BME280_pressure;Samples;Min_cycle;Max_cycle;Signal;HPM_P1;HPM_P2
2021/12/18 00:00:43;;;;;;;2.28;2.17;;;17.80;63.20;;;;;;5048189;28;20028;-23
2021/12/18 00:03:08;;;;;;;2.40;2.30;;;17.80;63.00;;;;;;5056997;28;20039;-24
2021/12/18 00:05:34;;;;;;;2.53;2.33;;;17.80;63.10;;;;;;5056052;28;20110;-23
2021/12/18 00:07:59;;;;;;;2.28;2.17;;;17.80;63.10;;;;;;5056100;28;20035;-23
2021/12/18 00:10:25;;;;;;;3.28;2.45;;;17.80;62.90;;;;;;5056154;28;20024;-25
2021/12/18 00:12:51;;;;;;;2.38;2.20;;;17.80;62.80;;;;;;5056621;28;20029;-25
2021/12/18 00:15:17;;;;;;;2.20;2.10;;;17.80;63.70;;;;;;5061558;28;20044;-22
2021/12/18 00:17:43;;;;;;;2.22;2.13;;;17.80;62.80;;;;;;5057735;28;20540;-29
2021/12/18 00:20:09;;;;;;;2.38;2.28;;;17.80;62.80;;;;;;5056504;28;20025;-23
2021/12/18 00:22:35;;;;;;;2.47;2.35;;;17.80;62.70;;;;;;5056603;28;20029;-21
2021/12/18 00:25:00;;;;;;;2.08;1.98;;;17.80;62.70;;;;;;5056299;28;20104;-24
2021/12/18 00:27:26;;;;;;;2.50;2.30;;;17.80;62.70;;;;;;5056301;28;20380;-21
2021/12/18 00:29:51;;;;;;;2.20;2.10;;;17.80;62.90;;;;;;5055218;28;20029;-27
2021/12/18 00:32:17;;;;;;;2.40;2.30;;;17.80;62.80;;;;;;5056184;28;20379;-28
2021/12/18 00:34:42;;;;;;;2.60;2.40;;;17.80;62.90;;;;;;5057343;28;20025;-25
2021/12/18 00:37:08;;;;;;;2.28;2.17;;;17.70;62.90;;;;;;5055824;28;20052;-24
2021/12/18 00:39:37;;;;;;;2.75;2.58;;;17.70;62.80;;;;;;5055747;28;20032;-24
2021/12/18 00:45:06;;;;;;;2.45;2.03;;;17.80;62.70;;;;;;5032709;28;20037;-28
2021/12/18 00:47:32;;;;;;;2.78;2.58;;;17.70;62.80;;;;;;5051411;28;20048;-24
2021/12/18 00:49:57;;;;;;;2.28;2.17;;;17.70;62.80;;;;;;5055535;28;20049;-26
2021/12/18 00:52:23;;;;;;;2.00;1.90;;;17.70;62.80;;;;;;5055389;28;20032;-25
2021/12/18 00:54:49;;;;;;;2.10;2.00;;;17.70;62.70;;;;;;5055910;28;20021;-24
2021/12/18 00:57:15;;;;;;;2.00;1.90;;;17.70;62.60;;;;;;5055387;28;20082;-24
2021/12/18 00:59:40;;;;;;;2.00;1.90;;;17.70;62.70;;;;;;5056214;28;20028;-26
2021/12/18 01:02:06;;;;;;;2.40;2.20;;;17.70;62.70;;;;;;5056012;28;20040;-22
2021/12/18 01:04:31;;;;;;;2.20;2.10;;;17.70;62.70;;;;;;5055508;28;20017;-25
2021/12/18 01:06:57;;;;;;;1.80;1.70;;;17.70;62.80;;;;;;5056057;28;20063;-30
2021/12/18 01:09:36;;;;;;;2.00;1.90;;;17.70;62.70;;;;;;5055682;28;20040;-23
2021/12/18 01:12:04;;;;;;;2.05;1.95;;;17.70;62.60;;;;;;5056020;28;20035;-27
2021/12/18 01:22:42;;;;;;;2.08;1.98;;;17.70;62.60;;;;;;5057568;28;20477;-24
2021/12/18 01:25:12;;;;;;;1.77;1.67;;;17.60;62.60;;;;;;5055889;28;20066;-25
2021/12/18 01:27:37;;;;;;;2.30;2.20;;;17.70;62.60;;;;;;5054249;28;20037;-22
2021/12/18 01:30:04;;;;;;;2.13;2.03;;;17.70;62.60;;;;;;5055056;28;20503;-28
2021/12/18 01:32:30;;;;;;;2.30;2.20;;;17.70;62.60;;;;;;5054853;28;20116;-27
2021/12/18 01:34:56;;;;;;;1.90;1.80;;;17.70;62.50;;;;;;5058165;28;20017;-23
2021/12/18 01:37:21;;;;;;;1.80;1.70;;;17.70;62.50;;;;;;5052204;28;20036;-26
2021/12/18 01:39:47;;;;;;;2.65;2.00;;;17.70;62.40;;;;;;5054933;28;20484;-26
2021/12/18 01:52:53;;;;;;;1.95;1.77;;;17.70;62.30;;;;;;5055303;28;20308;-21
2021/12/18 01:55:29;;;;;;;1.88;1.77;;;17.70;62.40;;;;;;5054725;28;20401;-28
2021/12/18 01:57:54;;;;;;;1.60;1.50;;;17.70;62.30;;;;;;5055491;28;20029;-28
2021/12/18 02:00:26;;;;;;;1.77;1.67;;;17.60;62.40;;;;;;5055346;28;20556;-28
2021/12/18 02:02:51;;;;;;;1.80;1.70;;;17.60;62.50;;;;;;5055291;28;20055;-26
2021/12/18 02:05:17;;;;;;;1.60;1.50;;;17.60;62.50;;;;;;5054882;28;20100;-26
2021/12/18 02:07:43;;;;;;;1.50;1.40;;;17.60;62.40;;;;;;5055324;28;20594;-27
2021/12/18 02:10:16;;;;;;;1.52;1.42;;;17.60;62.30;;;;;;5058112;28;20029;-24
2021/12/18 02:20:44;;;;;;;;;;;17.60;62.50;;;;;;5059539;28;20051;-23
2021/12/18 02:23:10;;;;;;;1.65;1.58;;;17.60;62.40;;;;;;5058809;28;19916;-23
2021/12/18 02:25:36;;;;;;;1.85;1.75;;;17.60;62.50;;;;;;5058482;28;20033;-26
2021/12/18 02:28:05;;;;;;;1.90;1.80;;;17.60;62.40;;;;;;5059001;28;20490;-23
2021/12/18 02:30:32;;;;;;;1.33;1.25;;;17.60;62.40;;;;;;5058625;28;20032;-24
2021/12/18 02:32:57;;;;;;;1.73;1.63;;;17.60;62.40;;;;;;5052327;28;20043;-25
2021/12/18 02:35:38;;;;;;;1.70;1.60;;;17.60;62.30;;;;;;5058458;28;20025;-23
2021/12/18 02:38:19;;;;;;;1.80;1.70;;;17.60;62.40;;;;;;5058724;28;20021;-25
2021/12/18 02:43:31;;;;;;;2.00;1.90;;;17.60;62.30;;;;;;5058789;28;20040;-25
2021/12/18 02:46:00;;;;;;;1.85;1.75;;;17.60;62.20;;;;;;5058188;28;20090;-21
2021/12/18 02:48:27;;;;;;;1.60;1.50;;;17.60;62.30;;;;;;5058321;28;20036;-23
2021/12/18 02:50:53;;;;;;;1.70;1.60;;;17.60;62.30;;;;;;5056822;28;20547;-24
2021/12/18 02:53:18;;;;;;;1.58;1.48;;;17.60;62.30;;;;;;5054947;28;20104;-27
2021/12/18 02:55:44;;;;;;;1.63;1.52;;;17.60;62.30;;;;;;5057835;28;20025;-26
2021/12/18 02:58:10;;;;;;;1.98;1.88;;;17.60;62.20;;;;;;5058360;28;20398;-22
2021/12/18 03:00:35;;;;;;;1.85;1.75;;;17.60;62.20;;;;;;5057350;28;20405;-24
2021/12/18 03:03:07;;;;;;;1.83;1.73;;;17.60;62.30;;;;;;5058095;28;20033;-28
2021/12/18 03:05:40;;;;;;;1.70;1.60;;;17.50;62.30;;;;;;5057752;28;20036;-22
2021/12/18 03:08:13;;;;;;;1.80;1.70;;;17.60;62.30;;;;;;5051899;28;20409;-27
2021/12/18 03:19:16;;;;;;;1.90;1.80;;;17.50;62.40;;;;;;5057981;28;20183;-22
2021/12/18 03:24:20;;;;;;;1.63;1.52;;;17.50;62.30;;;;;;5057024;28;20495;-24
2021/12/18 03:26:46;;;;;;;1.38;1.35;;;17.50;62.40;;;;;;5057376;28;20028;-28
2021/12/18 03:29:12;;;;;;;1.70;1.60;;;17.40;62.40;;;;;;5057297;28;20037;-25
2021/12/18 03:31:37;;;;;;;1.55;1.45;;;17.40;62.50;;;;;;5056337;28;20036;-27
2021/12/18 03:34:03;;;;;;;1.67;1.60;;;17.50;62.50;;;;;;5057735;28;20017;-28
2021/12/18 03:36:28;;;;;;;1.88;1.70;;;17.50;62.50;;;;;;5057032;28;20101;-25
2021/12/18 03:38:54;;;;;;;1.55;1.55;;;17.40;62.40;;;;;;5057112;28;20039;-22
2021/12/18 03:41:20;;;;;;;2.15;1.88;;;17.40;62.50;;;;;;5057336;28;20025;-25
2021/12/18 03:43:45;;;;;;;1.27;1.27;;;17.40;62.40;;;;;;5035726;28;20021;-26
2021/12/18 03:46:11;;;;;;;1.73;1.63;;;17.40;62.40;;;;;;5053184;28;20393;-31
2021/12/18 03:48:37;;;;;;;1.30;1.30;;;17.40;62.40;;;;;;5055550;28;20028;-26
2021/12/18 03:51:03;;;;;;;1.70;1.60;;;17.50;62.30;;;;;;5057242;28;20440;-26
2021/12/18 03:53:28;;;;;;;1.55;1.45;;;17.40;62.40;;;;;;5056592;28;20371;-24
2021/12/18 03:55:54;;;;;;;1.95;1.85;;;17.40;62.40;;;;;;5057032;28;20032;-28
2021/12/18 03:58:19;;;;;;;1.88;1.77;;;17.40;62.50;;;;;;5056820;28;20017;-22
2021/12/18 04:00:45;;;;;;;1.40;1.40;;;17.40;62.60;;;;;;5056906;28;20033;-22
2021/12/18 04:03:11;;;;;;;1.33;1.33;;;17.40;62.50;;;;;;5057094;28;20517;-24
2021/12/18 04:05:36;;;;;;;1.60;1.50;;;17.40;62.50;;;;;;5056707;28;20478;-29
2021/12/18 04:08:11;;;;;;;1.80;1.70;;;17.30;63.00;;;;;;5056245;28;20025;-29
2021/12/18 04:10:37;;;;;;;1.30;1.30;;;17.30;62.50;;;;;;5056628;28;20115;-25
2021/12/18 04:13:04;;;;;;;1.10;1.10;;;17.30;62.50;;;;;;5057079;28;20485;-21
2021/12/18 04:15:29;;;;;;;1.40;1.40;;;17.40;62.40;;;;;;5061344;28;20024;-24
2021/12/18 04:17:55;;;;;;;1.17;1.17;;;17.30;62.30;;;;;;5056576;28;20059;-27
2021/12/18 04:20:21;;;;;;;1.50;1.40;;;17.40;62.50;;;;;;5056632;28;20013;-25
2021/12/18 04:22:46;;;;;;;1.45;1.40;;;17.40;62.40;;;;;;5055860;28;20060;-28
2021/12/18 04:25:12;;;;;;;1.38;1.27;;;17.30;62.40;;;;;;5054079;28;20021;-23
2021/12/18 04:27:37;;;;;;;1.25;1.25;;;17.30;62.50;;;;;;5053624;28;20051;-27
2021/12/18 04:30:03;;;;;;;1.17;1.17;;;17.30;62.50;;;;;;5056359;28;20489;-24
2021/12/18 04:32:29;;;;;;;1.40;1.30;;;17.30;62.50;;;;;;5054958;28;20029;-23
2021/12/18 04:34:55;;;;;;;1.30;1.30;;;17.30;62.30;;;;;;5056170;28;20021;-25
2021/12/18 04:37:20;;;;;;;1.67;1.58;;;17.30;62.10;;;;;;5056226;28;20032;-24
2021/12/18 04:39:46;;;;;;;1.10;1.10;;;17.30;62.30;;;;;;5056050;28;20028;-29
2021/12/18 04:42:12;;;;;;;1.60;1.50;;;17.40;62.20;;;;;;5055696;28;20032;-22
2021/12/18 04:44:37;;;;;;;1.48;1.42;;;17.40;62.00;;;;;;5056212;28;20029;-23
2021/12/18 04:47:03;;;;;;;1.40;1.30;;;17.30;62.10;;;;;;5056399;28;20028;-30
2021/12/18 04:49:29;;;;;;;1.67;1.58;;;17.30;62.10;;;;;;5054242;28;20492;-23
2021/12/18 04:51:54;;;;;;;1.15;1.15;;;17.30;62.30;;;;;;5055979;28;20087;-21
2021/12/18 04:54:20;;;;;;;1.50;1.40;;;17.30;62.00;;;;;;5055812;28;20479;-21
2021/12/18 04:56:46;;;;;;;1.50;1.40;;;17.30;61.90;;;;;;5056211;28;20078;-27
2021/12/18 04:59:12;;;;;;;1.02;1.02;;;17.30;62.00;;;;;;5055784;28;20032;-29
2021/12/18 05:01:40;;;;;;;1.27;1.27;;;17.30;62.20;;;;;;5056185;28;20063;-27
2021/12/18 05:04:09;;;;;;;1.40;1.30;;;17.30;62.00;;;;;;5055656;28;20033;-24
2021/12/18 05:06:37;;;;;;;1.23;1.23;;;17.30;61.90;;;;;;5055876;28;20037;-22
2021/12/18 05:09:03;;;;;;;1.38;1.33;;;17.30;62.00;;;;;;5048724;28;20470;-31
2021/12/18 05:11:29;;;;;;;1.60;1.50;;;17.30;61.90;;;;;;5055804;28;20386;-22
2021/12/18 05:13:54;;;;;;;1.60;1.50;;;17.30;62.10;;;;;;5055739;28;20025;-25
2021/12/18 05:16:21;;;;;;;1.20;1.20;;;17.20;62.20;;;;;;5055183;28;20055;-25
2021/12/18 05:18:46;;;;;;;1.05;1.05;;;17.30;62.10;;;;;;5049851;28;20111;-28
2021/12/18 05:21:12;;;;;;;1.00;1.00;;;17.30;62.10;;;;;;5055758;28;20146;-21
2021/12/18 05:23:38;;;;;;;2.22;1.25;;;17.20;62.10;;;;;;5055170;28;20405;-25
2021/12/18 05:26:03;;;;;;;1.25;1.23;;;17.20;62.10;;;;;;5055713;28;20040;-26
2021/12/18 05:28:29;;;;;;;1.30;1.25;;;17.20;62.10;;;;;;5055686;28;20021;-23
2021/12/18 05:30:54;;;;;;;1.30;1.30;;;17.20;62.10;;;;;;5048904;28;20075;-24
2021/12/18 05:33:20;;;;;;;1.33;1.33;;;17.20;62.10;;;;;;5060936;28;20029;-23
2021/12/18 05:35:45;;;;;;;1.50;1.40;;;17.20;62.10;;;;;;5055585;28;20470;-27
2021/12/18 05:38:11;;;;;;;1.40;1.30;;;17.20;62.10;;;;;;5055572;28;20108;-23
2021/12/18 05:40:40;;;;;;;1.30;1.30;;;17.20;62.00;;;;;;5055522;28;20033;-21
2021/12/18 05:43:07;;;;;;;1.23;1.23;;;17.20;62.00;;;;;;5055611;28;20043;-25
2021/12/18 05:45:32;;;;;;;1.50;1.40;;;17.10;62.00;;;;;;5059299;28;20025;-25
2021/12/18 05:47:58;;;;;;;1.20;1.20;;;17.20;62.10;;;;;;5059533;28;20061;-27
2021/12/18 05:50:29;;;;;;;1.40;1.40;;;17.20;62.10;;;;;;5058560;28;20045;-22
2021/12/18 05:52:55;;;;;;;1.10;1.10;;;17.20;62.20;;;;;;5059474;28;20032;-32
2021/12/18 05:55:23;;;;;;;1.25;1.25;;;17.20;62.00;;;;;;5059202;28;20076;-23
2021/12/18 05:57:49;;;;;;;1.30;1.30;;;17.10;62.00;;;;;;5059377;28;20025;-24
2021/12/18 06:00:15;;;;;;;1.17;1.17;;;17.10;62.10;;;;;;5059395;28;20544;-23
2021/12/18 06:02:40;;;;;;;1.10;1.10;;;17.10;62.20;;;;;;5059280;28;20070;-23
2021/12/18 06:05:07;;;;;;;1.38;1.27;;;17.10;62.20;;;;;;5058928;28;20078;-26
2021/12/18 06:07:43;;;;;;;1.20;1.20;;;17.10;62.10;;;;;;5058762;28;20037;-24
2021/12/18 06:10:09;;;;;;;1.42;1.33;;;17.10;62.20;;;;;;5058978;28;20418;-22
2021/12/18 06:12:35;;;;;;;1.17;1.17;;;17.10;62.20;;;;;;5059140;28;20021;-23
2021/12/18 06:15:00;;;;;;;1.40;1.30;;;17.10;62.30;;;;;;5060552;28;20029;-27
2021/12/18 06:17:26;;;;;;;1.38;1.30;;;17.10;62.30;;;;;;5058852;28;20017;-27
2021/12/18 06:19:51;;;;;;;1.40;1.38;;;17.00;62.30;;;;;;5058463;28;20033;-22
2021/12/18 06:22:17;;;;;;;1.10;1.10;;;17.10;62.30;;;;;;5057719;28;20021;-22
2021/12/18 06:24:43;;;;;;;1.33;1.23;;;17.10;62.30;;;;;;5058346;28;20044;-24
2021/12/18 06:27:08;;;;;;;1.10;1.10;;;17.10;62.30;;;;;;5058757;28;20051;-30
2021/12/18 06:29:34;;;;;;;1.30;1.30;;;17.10;62.30;;;;;;5058535;28;20037;-26
2021/12/18 06:32:00;;;;;;;1.30;1.20;;;17.00;62.30;;;;;;5052457;28;20051;-21
2021/12/18 06:34:26;;;;;;;1.27;1.27;;;17.10;62.30;;;;;;5059733;28;20470;-25
2021/12/18 06:36:51;;;;;;;1.10;1.10;;;17.10;62.20;;;;;;5058369;28;20029;-23
2021/12/18 06:39:17;;;;;;;1.30;1.30;;;17.10;62.30;;;;;;5058626;28;20056;-28
2021/12/18 06:41:42;;;;;;;1.45;1.35;;;17.10;62.30;;;;;;5058156;28;20117;-26
2021/12/18 06:44:08;;;;;;;1.10;1.10;;;17.10;62.20;;;;;;5058552;28;20078;-25
2021/12/18 06:46:34;;;;;;;1.27;1.27;;;17.10;62.10;;;;;;5048848;28;20473;-24
2021/12/18 06:48:59;;;;;;;1.50;1.40;;;17.10;62.20;;;;;;5048527;28;20056;-24
2021/12/18 06:51:25;;;;;;;1.60;1.50;;;17.10;62.30;;;;;;5057936;28;20098;-22
2021/12/18 06:53:51;;;;;;;1.50;1.40;;;17.10;62.10;;;;;;5058121;28;20053;-24
2021/12/18 06:56:16;;;;;;;1.52;1.42;;;17.00;62.30;;;;;;5057250;28;20021;-26
2021/12/18 06:58:42;;;;;;;1.10;1.10;;;17.00;62.30;;;;;;5056706;28;20379;-21
2021/12/18 07:01:08;;;;;;;1.20;1.20;;;17.00;62.20;;;;;;5056654;28;20053;-21
2021/12/18 07:03:34;;;;;;;1.40;1.30;;;17.10;62.20;;;;;;5039013;28;20030;-21
2021/12/18 07:05:59;;;;;;;1.20;1.10;;;17.00;62.20;;;;;;5054916;28;20126;-28
2021/12/18 07:08:25;;;;;;;1.20;1.20;;;17.00;62.20;;;;;;5057243;28;20033;-25
2021/12/18 07:10:51;;;;;;;1.17;1.17;;;17.00;62.20;;;;;;5057963;28;20084;-25
2021/12/18 07:13:16;;;;;;;1.08;1.08;;;17.00;62.20;;;;;;5057121;28;20017;-23
2021/12/18 07:15:42;;;;;;;1.40;1.40;;;17.00;62.20;;;;;;5055907;28;20040;-24
2021/12/18 07:18:08;;;;;;;1.80;1.70;;;17.00;62.10;;;;;;5057666;28;20036;-26
2021/12/18 07:20:33;;;;;;;1.35;1.30;;;17.00;62.10;;;;;;5057732;28;20029;-24
2021/12/18 07:22:59;;;;;;;1.10;1.10;;;17.00;62.10;;;;;;5057732;28;20032;-23
2021/12/18 07:25:25;;;;;;;1.20;1.20;;;17.00;62.10;;;;;;5057449;28;20033;-24
2021/12/18 07:27:50;;;;;;;1.48;1.38;;;17.00;62.10;;;;;;5057664;28;20409;-22
2021/12/18 07:30:16;;;;;;;1.20;1.20;;;17.00;62.20;;;;;;5057074;28;20052;-24
2021/12/18 07:32:42;;;;;;;1.35;1.30;;;17.00;62.10;;;;;;5059929;28;20029;-25
2021/12/18 07:35:08;;;;;;;1.10;1.10;;;17.00;62.20;;;;;;5057589;28;20028;-23
2021/12/18 07:37:34;;;;;;;1.33;1.23;;;17.00;62.10;;;;;;5047172;28;20025;-21
2021/12/18 07:40:00;;;;;;;1.27;1.27;;;17.00;62.00;;;;;;5053213;28;20539;-30
2021/12/18 07:42:26;;;;;;;1.50;1.40;;;17.00;62.10;;;;;;5056967;28;20093;-23
2021/12/18 07:44:52;;;;;;;1.20;1.20;;;17.10;62.00;;;;;;5057444;28;20025;-23
2021/12/18 07:47:18;;;;;;;1.50;1.40;;;17.00;62.20;;;;;;5056780;28;20386;-23
2021/12/18 07:49:43;;;;;;;1.05;1.05;;;17.00;62.10;;;;;;5056444;28;20505;-28
2021/12/18 07:52:09;;;;;;;1.30;1.30;;;17.00;62.20;;;;;;5056094;28;20025;-28
2021/12/18 07:54:35;;;;;;;1.45;1.35;;;17.00;62.10;;;;;;5055029;28;20047;-23
2021/12/18 07:57:00;;;;;;;1.10;1.10;;;17.00;62.10;;;;;;5055193;28;20029;-28
2021/12/18 07:59:26;;;;;;;4.88;1.30;;;17.00;62.10;;;;;;5054947;28;20028;-27
2021/12/18 08:01:51;;;;;;;1.20;1.20;;;17.00;62.10;;;;;;5056977;28;20041;-21
2021/12/18 08:04:17;;;;;;;1.25;1.25;;;17.00;62.10;;;;;;5069106;28;21761;-29
2021/12/18 08:06:43;;;;;;;1.13;1.13;;;17.00;62.10;;;;;;5056613;28;20071;-28
2021/12/18 08:09:08;;;;;;;1.40;1.30;;;17.00;62.10;;;;;;5055439;28;20095;-25
2021/12/18 08:11:34;;;;;;;1.35;1.35;;;17.00;62.10;;;;;;5052652;28;20032;-25
2021/12/18 08:13:59;;;;;;;1.15;1.05;;;16.90;62.20;;;;;;5044774;28;20032;-21
2021/12/18 08:16:25;;;;;;;1.50;1.40;;;16.90;62.20;;;;;;5057081;28;20029;-25
2021/12/18 08:18:51;;;;;;;1.23;1.23;;;16.90;62.30;;;;;;5055892;28;20590;-22
2021/12/18 08:21:16;;;;;;;1.25;1.25;;;16.90;62.20;;;;;;5055604;28;20115;-25
2021/12/18 08:23:42;;;;;;;1.42;1.40;;;16.90;62.30;;;;;;5056065;28;20021;-26
2021/12/18 08:26:07;;;;;;;1.30;1.30;;;16.90;62.20;;;;;;5056058;28;20036;-27
2021/12/18 08:28:33;;;;;;;1.55;1.45;;;16.90;62.30;;;;;;5057233;28;20032;-28
2021/12/18 08:30:59;;;;;;;1.42;1.33;;;16.90;62.20;;;;;;5034029;28;20026;-21
2021/12/18 08:33:24;;;;;;;0.90;0.90;;;16.90;62.10;;;;;;5064568;28;20029;-28
2021/12/18 08:35:50;;;;;;;1.13;1.13;;;16.90;62.00;;;;;;5076137;28;20020;-22
2021/12/18 08:38:15;;;;;;;1.33;1.23;;;16.90;62.00;;;;;;5066989;28;20070;-23
2021/12/18 08:40:42;;;;;;;1.10;1.10;;;16.80;62.10;;;;;;4703163;28;10000506;-22
2021/12/18 08:43:08;;;;;;;2.00;1.90;;;16.90;62.30;;;;;;5051152;28;20040;-25
2021/12/18 08:45:34;;;;;;;5.13;1.75;;;16.90;62.20;;;;;;5051471;28;20036;-27
2021/12/18 08:47:59;;;;;;;1.30;1.20;;;16.90;62.30;;;;;;5050465;28;20087;-25
2021/12/18 08:50:25;;;;;;;2.47;1.73;;;16.90;62.30;;;;;;5050815;28;20111;-23
2021/12/18 08:52:50;;;;;;;2.90;1.70;;;16.90;62.50;;;;;;5051391;28;20021;-30
2021/12/18 08:55:17;;;;;;;3.92;1.70;;;16.90;62.60;;;;;;5051522;28;20033;-27
2021/12/18 08:57:42;;;;;;;1.55;1.45;;;16.90;62.60;;;;;;5046947;28;20029;-29
2021/12/18 09:00:10;;;;;;;2.03;1.50;;;16.90;62.70;;;;;;5054524;28;20086;-28
2021/12/18 09:02:37;;;;;;;1.75;1.65;;;16.90;62.70;;;;;;5052258;28;20025;-27
2021/12/18 09:05:03;;;;;;;1.73;1.63;;;16.90;63.10;;;;;;5055659;28;20070;-22
2021/12/18 09:07:28;;;;;;;2.58;1.90;;;16.90;62.80;;;;;;5056185;28;20021;-30
2021/12/18 09:09:54;;;;;;;2.25;2.05;;;17.00;63.20;;;;;;5051259;28;20065;-22
2021/12/18 09:12:19;;;;;;;2.80;2.60;;;17.00;63.50;;;;;;5050501;28;20080;-29
2021/12/18 09:14:45;;;;;;;3.58;3.28;;;16.90;64.10;;;;;;5057216;28;20060;-26
2021/12/18 09:17:11;;;;;;;6.95;3.30;;;17.00;64.80;;;;;;5049687;28;20025;-24
2021/12/18 09:19:37;;;;;;;5.78;3.13;;;17.00;65.40;;;;;;5033583;28;20086;-27
2021/12/18 09:22:04;;;;;;;6.63;3.20;;;17.00;65.70;;;;;;5051733;28;20052;-21
2021/12/18 09:24:30;;;;;;;5.40;3.10;;;17.00;65.70;;;;;;5058021;28;20036;-28
2021/12/18 09:26:55;;;;;;;2.92;2.72;;;17.00;65.80;;;;;;5054572;28;20029;-22
2021/12/18 09:29:21;;;;;;;3.35;3.10;;;17.00;65.60;;;;;;5062383;28;20032;-27
2021/12/18 09:31:46;;;;;;;2.70;2.50;;;17.00;66.10;;;;;;5059227;28;20066;-24
2021/12/18 09:34:12;;;;;;;3.35;2.80;;;17.00;66.00;;;;;;5077349;28;20512;-24
2021/12/18 09:36:37;;;;;;;3.85;3.22;;;17.00;65.90;;;;;;5056933;28;20029;-23
2021/12/18 09:39:03;;;;;;;3.88;3.50;;;17.00;66.10;;;;;;5060572;28;20028;-25
2021/12/18 09:41:29;;;;;;;8.80;3.33;;;17.10;66.10;;;;;;5062526;28;20013;-27
2021/12/18 09:43:55;;;;;;;3.90;3.50;;;17.20;65.80;;;;;;5044617;28;20035;-25
2021/12/18 09:46:20;;;;;;;4.15;3.47;;;17.20;66.00;;;;;;5062597;28;20032;-26
2021/12/18 09:48:47;;;;;;;8.68;4.53;;;17.20;65.70;;;;;;5059549;28;20068;-29
2021/12/18 09:51:22;;;;;;;6.18;4.75;;;17.30;65.60;;;;;;5057027;28;20025;-25
2021/12/18 09:53:50;;;;;;;8.10;4.00;;;17.30;65.50;;;;;;5060869;28;20037;-22
2021/12/18 09:56:15;;;;;;;6.85;3.70;;;17.20;65.70;;;;;;5061487;28;20151;-28
2021/12/18 09:58:41;;;;;;;4.75;3.90;;;17.20;65.70;;;;;;5053677;28;20072;-30
2021/12/18 10:01:06;;;;;;;7.00;4.22;;;17.30;65.70;;;;;;5043157;28;20640;-24
2021/12/18 10:03:55;;;;;;;3.67;3.38;;;17.30;65.80;;;;;;5062596;28;20032;-22
2021/12/18 10:06:43;;;;;;;7.18;3.72;;;17.30;65.80;;;;;;5061070;28;20025;-28
2021/12/18 10:09:17;;;;;;;6.43;3.53;;;17.30;65.60;;;;;;5052096;28;20188;-28
2021/12/18 10:11:50;;;;;;;;;;;17.30;65.60;;;;;;5062612;28;20700;-27
2021/12/18 10:14:16;;;;;;;6.72;3.42;;;17.30;65.50;;;;;;5062770;28;19923;-30
2021/12/18 10:16:44;;;;;;;2.88;2.67;;;17.40;65.60;;;;;;5079658;28;20035;-25
2021/12/18 10:19:21;;;;;;;6.57;3.20;;;17.40;65.40;;;;;;5082659;28;20024;-28
2021/12/18 10:21:57;;;;;;;3.80;3.35;;;17.40;65.40;;;;;;5066546;28;20032;-28
2021/12/18 10:24:23;;;;;;;3.90;3.30;;;17.40;65.40;;;;;;5082515;28;20086;-27
2021/12/18 10:26:49;;;;;;;3.25;2.97;;;17.40;65.40;;;;;;5076923;28;20160;-23
2021/12/18 10:29:28;;;;;;;3.72;3.08;;;17.40;65.40;;;;;;5062027;28;20092;-28
2021/12/18 10:31:53;;;;;;;4.07;3.08;;;17.30;65.40;;;;;;5053580;28;20025;-23
2021/12/18 10:34:19;;;;;;;2.67;2.53;;;17.30;65.50;;;;;;5058943;28;20028;-26
2021/12/18 10:37:06;;;;;;;4.50;2.90;;;17.30;65.60;;;;;;5058981;28;20055;-27
2021/12/18 10:39:32;;;;;;;3.05;2.47;;;17.30;65.30;;;;;;5059094;28;20025;-23
2021/12/18 10:41:57;;;;;;;2.90;2.60;;;17.40;65.40;;;;;;5057815;28;20098;-25
2021/12/18 10:44:23;;;;;;;4.38;2.78;;;17.30;65.50;;;;;;5058874;28;20370;-23
2021/12/18 10:46:48;;;;;;;4.32;2.55;;;17.30;65.60;;;;;;5058903;28;20025;-22
2021/12/18 10:49:15;;;;;;;2.85;2.63;;;17.40;65.40;;;;;;5056710;28;20061;-27
2021/12/18 10:51:42;;;;;;;3.65;2.92;;;17.40;65.30;;;;;;5058722;28;20032;-28
2021/12/18 10:54:18;;;;;;;3.40;2.45;;;17.40;65.00;;;;;;5058825;28;20017;-27
2021/12/18 10:56:50;;;;;;;2.53;2.22;;;17.40;65.00;;;;;;5055622;28;20048;-22
2021/12/18 10:59:31;;;;;;;3.00;2.63;;;17.40;65.30;;;;;;5054274;28;20095;-29
2021/12/18 11:01:58;;;;;;;3.25;2.40;;;17.50;65.30;;;;;;5051241;28;20021;-28
2021/12/18 11:04:24;;;;;;;2.50;2.30;;;17.50;65.10;;;;;;5057769;28;20032;-24
2021/12/18 11:06:50;;;;;;;5.18;2.58;;;17.50;64.80;;;;;;5057470;28;20029;-26
2021/12/18 11:09:17;;;;;;;2.85;2.45;;;17.50;64.80;;;;;;4706718;28;10000204;-21
2021/12/18 11:14:19;;;;;;;2.90;2.70;;;17.50;64.70;;;;;;5055478;28;20159;-24
2021/12/18 11:16:50;;;;;;;2.58;2.35;;;17.40;64.90;;;;;;5072137;28;20182;-22
2021/12/18 11:19:20;;;;;;;3.28;2.30;;;17.40;64.70;;;;;;5074462;28;20024;-31
2021/12/18 11:21:47;;;;;;;2.92;2.40;;;17.50;64.60;;;;;;5068677;28;20046;-23
2021/12/18 11:24:14;;;;;;;2.75;2.53;;;17.50;64.40;;;;;;5054295;28;20040;-25
2021/12/18 11:26:50;;;;;;;2.40;2.20;;;17.50;64.30;;;;;;5054667;28;20040;-27
2021/12/18 11:29:21;;;;;;;5.50;4.00;;;17.50;64.00;;;;;;5054080;28;20024;-28
2021/12/18 11:31:46;;;;;;;6.25;4.28;;;17.50;64.70;;;;;;5040482;28;20505;-26
2021/12/18 11:34:12;;;;;;;4.60;3.97;;;17.50;65.10;;;;;;5061393;28;20314;-23
2021/12/18 11:36:39;;;;;;;4.97;4.03;;;17.40;65.10;;;;;;5053273;28;20086;-22
2021/12/18 11:39:05;;;;;;;7.25;4.25;;;17.50;65.10;;;;;;5052075;28;20029;-26
2021/12/18 11:41:31;;;;;;;7.57;4.47;;;17.50;65.20;;;;;;5053593;28;20526;-22
2021/12/18 11:43:56;;;;;;;9.70;4.50;;;17.50;65.20;;;;;;5054204;28;20073;-29
2021/12/18 11:46:37;;;;;;;4.57;3.90;;;17.50;65.20;;;;;;5053913;28;20033;-28
2021/12/18 11:49:07;;;;;;;6.10;3.75;;;17.50;65.20;;;;;;5051386;28;20569;-27
2021/12/18 11:51:33;;;;;;;6.18;4.05;;;17.50;65.10;;;;;;5054382;28;20783;-31
2021/12/18 11:53:59;;;;;;;8.00;3.90;;;17.50;65.70;;;;;;5050659;28;20064;-31
2021/12/18 11:56:25;;;;;;;4.47;3.97;;;17.50;65.70;;;;;;5049305;28;20090;-30
2021/12/18 11:58:51;;;;;;;4.55;3.45;;;17.60;65.40;;;;;;5053755;28;20031;-28
2021/12/18 12:01:16;;;;;;;3.97;3.58;;;17.60;65.50;;;;;;5049069;28;20037;-25
2021/12/18 12:03:51;;;;;;;5.80;3.78;;;17.50;65.50;;;;;;5049808;28;20078;-27
2021/12/18 12:06:30;;;;;;;3.90;3.10;;;17.60;65.50;;;;;;5053570;28;20039;-28
2021/12/18 12:09:15;;;;;;;5.70;3.10;;;17.60;65.50;;;;;;5052988;28;20021;-33
2021/12/18 12:11:57;;;;;;;6.40;3.25;;;17.70;65.30;;;;;;5039945;28;20036;-26
2021/12/18 12:14:24;;;;;;;5.68;3.55;;;17.60;65.30;;;;;;5053436;28;20153;-30
2021/12/18 12:16:50;;;;;;;4.47;2.97;;;17.70;65.30;;;;;;5062204;28;20024;-25
2021/12/18 12:19:20;;;;;;;4.60;3.42;;;17.60;65.50;;;;;;5052932;28;20074;-30
2021/12/18 12:21:51;;;;;;;4.95;2.75;;;17.60;65.50;;;;;;5052543;28;20112;-28
2021/12/18 12:24:21;;;;;;;3.92;3.00;;;17.60;65.60;;;;;;5053086;28;20512;-29
2021/12/18 12:26:47;;;;;;;4.18;2.65;;;17.60;65.70;;;;;;5053271;28;20021;-37
2021/12/18 12:29:16;;;;;;;7.78;2.97;;;17.60;65.50;;;;;;5052443;28;20032;-30
2021/12/18 12:32:02;;;;;;;10.77;3.30;;;17.60;65.40;;;;;;5031680;28;20031;-32
2021/12/18 12:34:31;;;;;;;4.25;2.75;;;17.60;65.30;;;;;;5050747;28;20140;-26
2021/12/18 12:37:00;;;;;;;3.08;2.42;;;17.60;65.30;;;;;;5050539;28;20074;-31
2021/12/18 12:39:26;;;;;;;3.05;2.63;;;17.70;65.30;;;;;;5034991;28;20040;-24
2021/12/18 12:41:52;;;;;;;3.30;2.30;;;17.70;65.20;;;;;;5051147;28;20025;-27
2021/12/18 12:44:32;;;;;;;3.03;2.75;;;17.70;65.10;;;;;;5046809;28;20171;-22
2021/12/18 12:47:20;;;;;;;2.63;2.42;;;17.70;64.90;;;;;;5052466;28;20060;-33
2021/12/18 12:50:00;;;;;;;2.60;2.30;;;17.70;65.00;;;;;;5043019;28;20513;-24
2021/12/18 12:52:27;;;;;;;2.30;2.08;;;17.70;65.00;;;;;;5052875;28;20093;-27
2021/12/18 12:55:05;;;;;;;2.88;2.42;;;17.80;65.00;;;;;;5052273;28;20025;-28
2021/12/18 12:57:36;;;;;;;2.53;2.33;;;17.80;64.90;;;;;;5046613;28;20024;-24
2021/12/18 13:00:07;;;;;;;1.90;1.77;;;17.80;64.70;;;;;;5051900;28;20611;-27
2021/12/18 13:02:49;;;;;;;2.15;1.95;;;17.90;64.70;;;;;;5053051;28;20046;-29
2021/12/18 13:05:15;;;;;;;2.65;2.30;;;17.90;64.50;;;;;;5052480;28;20025;-36
2021/12/18 13:07:50;;;;;;;2.35;2.15;;;17.90;64.50;;;;;;5052798;28;20025;-30
2021/12/18 13:10:23;;;;;;;2.75;2.47;;;17.90;64.40;;;;;;5052275;28;20032;-25
2021/12/18 13:13:05;;;;;;;3.50;2.20;;;17.90;64.20;;;;;;5052671;28;20106;-27
2021/12/18 13:15:55;;;;;;;2.58;2.38;;;18.00;64.10;;;;;;5055575;28;20020;-26
2021/12/18 13:18:24;;;;;;;2.15;1.98;;;18.00;63.90;;;;;;5052052;28;20025;-27
2021/12/18 13:21:03;;;;;;;2.22;1.70;;;18.00;64.00;;;;;;5051988;28;20054;-24
2021/12/18 13:23:38;;;;;;;3.28;2.22;;;18.10;63.90;;;;;;5052276;28;20520;-25
2021/12/18 13:26:14;;;;;;;1.98;1.88;;;18.00;64.00;;;;;;5051731;28;20025;-29
2021/12/18 13:29:09;;;;;;;2.13;1.90;;;18.00;63.90;;;;;;5052144;28;20029;-26
2021/12/18 13:31:44;;;;;;;2.40;2.20;;;18.00;64.00;;;;;;5039450;28;20029;-25
2021/12/18 13:34:10;;;;;;;1.55;1.45;;;18.00;64.00;;;;;;5050673;28;20679;-30
2021/12/18 13:36:52;;;;;;;1.92;1.80;;;18.00;64.00;;;;;;5051838;28;20025;-25